createdAt,value
2022-12-03T00:00:12.735Z,102229.21
2022-12-03T00:03:02.544Z,102229.73
2022-12-03T00:05:48.759Z,102229.10
2022-12-03T00:08:19.334Z,102235.52
2022-12-03T00:17:03.207Z,102226.92
2022-12-03T00:19:31.941Z,102223.34
2022-12-03T00:22:00.624Z,102224.70
2022-12-03T00:24:29.459Z,102224.77
2022-12-03T00:26:58.141Z,102232.65
2022-12-03T00:29:26.948Z,102236.76
2022-12-03T00:31:55.715Z,102241.27
2022-12-03T00:34:24.587Z,102244.90
2022-12-03T00:36:53.461Z,102248.35
2022-12-03T00:39:22.241Z,102255.55
2022-12-03T00:41:51.041Z,102258.95
2022-12-03T00:44:19.836Z,102260.80
2022-12-03T00:46:48.521Z,102262.98
2022-12-03T00:49:17.313Z,102265.71
2022-12-03T00:51:46.135Z,102267.57
2022-12-03T00:54:15.101Z,102270.67
2022-12-03T00:56:43.993Z,102271.13
2022-12-03T00:59:12.743Z,102269.98
2022-12-03T01:01:41.602Z,102273.49
2022-12-03T01:04:10.462Z,102270.72
2022-12-03T01:06:40.175Z,102269.02
2022-12-03T01:09:08.801Z,102268.38
2022-12-03T01:11:41.677Z,102263.68
2022-12-03T01:14:19.389Z,102261.59
2022-12-03T01:16:49.062Z,102266.25
2022-12-03T01:19:19.783Z,102268.17
2022-12-03T01:21:51.350Z,102265.28
2022-12-03T01:24:20.813Z,102266.31
2022-12-03T01:26:49.512Z,102267.29
2022-12-03T01:29:18.400Z,102264.36
2022-12-03T01:32:05.982Z,102266.47
2022-12-03T01:34:34.696Z,102269.84
2022-12-03T01:37:03.938Z,102276.54
2022-12-03T01:39:32.669Z,102278.44
2022-12-03T01:42:03.082Z,102279.27
2022-12-03T01:44:35.244Z,102278.93
2022-12-03T01:47:10.728Z,102281.45
2022-12-03T01:49:57.214Z,102284.27
2022-12-03T01:52:31.848Z,102285.40
2022-12-03T01:55:05.388Z,102288.60
2022-12-03T01:57:44.410Z,102291.40
2022-12-03T02:00:17.336Z,102286.34
2022-12-03T02:02:49.735Z,102290.04
2022-12-03T02:05:27.119Z,102291.69
2022-12-03T02:07:58.851Z,102289.65
2022-12-03T02:10:37.951Z,102290.48
2022-12-03T02:13:11.323Z,102287.60
2022-12-03T02:15:41.220Z,102285.38
2022-12-03T02:18:10.662Z,102288.96
2022-12-03T02:21:02.766Z,102296.54
2022-12-03T02:24:06.621Z,102295.98
2022-12-03T02:26:36.083Z,102294.64
2022-12-03T02:29:05.180Z,102291.02
2022-12-03T02:31:34.028Z,102293.54
2022-12-03T02:34:10.840Z,102292.18
2022-12-03T02:36:40.216Z,102294.63
2022-12-03T02:39:10.623Z,102297.20
2022-12-03T02:41:58.197Z,102295.46
2022-12-03T02:44:26.937Z,102292.34
2022-12-03T02:46:55.823Z,102292.54
2022-12-03T02:49:24.658Z,102291.89
2022-12-03T02:51:53.424Z,102293.89
2022-12-03T02:54:22.221Z,102292.53
2022-12-03T02:56:51.041Z,102298.34
2022-12-03T02:59:19.765Z,102300.58
2022-12-03T03:01:48.673Z,102303.98
2022-12-03T03:04:17.541Z,102304.34
2022-12-03T03:06:47.247Z,102308.17
2022-12-03T03:09:16.026Z,102309.92
2022-12-03T03:11:44.625Z,102311.45
2022-12-03T03:14:14.207Z,102310.05
2022-12-03T03:16:43.115Z,102307.02
2022-12-03T03:19:12.121Z,102307.37
2022-12-03T03:21:40.753Z,102309.27
2022-12-03T03:24:11.208Z,102310.59
2022-12-03T03:26:40.059Z,102307.16
2022-12-03T03:29:08.879Z,102304.78
2022-12-03T03:31:38.980Z,102304.61
2022-12-03T03:34:08.831Z,102304.30
2022-12-03T03:36:37.853Z,102306.34
2022-12-03T03:39:07.438Z,102304.13
2022-12-03T03:41:37.096Z,102303.13
2022-12-03T03:44:08.332Z,102310.48
2022-12-03T03:46:38.637Z,102309.62
2022-12-03T03:49:07.805Z,102310.48
2022-12-03T03:51:38.395Z,102312.89
2022-12-03T03:54:08.456Z,102313.86
2022-12-03T03:56:37.613Z,102311.38
2022-12-03T03:59:08.437Z,102311.31
2022-12-03T04:01:37.390Z,102316.20
2022-12-03T04:04:20.174Z,102321.23
2022-12-03T04:06:49.796Z,102322.75
2022-12-03T04:09:18.870Z,102328.14
2022-12-03T04:12:10.498Z,102325.56
2022-12-03T04:14:39.221Z,102324.02
2022-12-03T04:17:07.880Z,102325.09
2022-12-03T04:19:36.645Z,102326.77
2022-12-03T04:22:24.215Z,102327.25
2022-12-03T04:25:12.815Z,102327.80
2022-12-03T04:28:02.852Z,102328.52
2022-12-03T04:30:31.644Z,102333.89
2022-12-03T04:33:18.667Z,102333.20
2022-12-03T04:35:50.366Z,102336.61
2022-12-03T04:38:19.128Z,102340.58
2022-12-03T04:41:04.519Z,102343.14
2022-12-03T04:43:55.628Z,102346.38
2022-12-03T04:46:24.404Z,102346.52
2022-12-03T04:48:53.201Z,102349.14
2022-12-03T04:51:21.907Z,102354.97
2022-12-03T04:53:50.647Z,102357.20
2022-12-03T04:56:19.364Z,102359.78
2022-12-03T04:58:48.334Z,102359.04
2022-12-03T05:01:17.894Z,102364.86
2022-12-03T05:03:46.793Z,102362.30
2022-12-03T05:06:15.516Z,102365.18
2022-12-03T05:08:44.390Z,102367.95
2022-12-03T05:11:13.243Z,102364.78
2022-12-03T05:13:43.108Z,102368.78
2022-12-03T05:16:12.308Z,102368.73
2022-12-03T05:18:41.072Z,102365.44
2022-12-03T05:21:10.615Z,102369.40
2022-12-03T05:23:39.266Z,102371.52
2022-12-03T05:26:07.911Z,102374.64
2022-12-03T05:28:36.699Z,102375.00
2022-12-03T05:31:05.558Z,102380.86
2022-12-03T05:33:37.269Z,102383.92
2022-12-03T05:36:08.908Z,102387.27
2022-12-03T05:38:37.637Z,102387.27
2022-12-03T05:41:26.434Z,102392.07
2022-12-03T05:43:55.946Z,102393.05
2022-12-03T05:46:24.624Z,102392.84
2022-12-03T05:48:53.328Z,102399.37
2022-12-03T05:51:22.055Z,102400.94
2022-12-03T05:53:50.781Z,102404.22
2022-12-03T05:56:19.438Z,102406.85
2022-12-03T05:58:48.414Z,102409.40
2022-12-03T06:01:17.133Z,102411.41
2022-12-03T06:03:46.100Z,102411.35
2022-12-03T06:06:15.037Z,102415.64
2022-12-03T06:08:43.630Z,102412.25
2022-12-03T06:11:12.383Z,102413.23
2022-12-03T06:13:41.140Z,102410.70
2022-12-03T06:16:10.039Z,102417.06
2022-12-03T06:18:38.951Z,102419.48
2022-12-03T06:21:07.658Z,102426.15
2022-12-03T06:23:37.554Z,102430.29
2022-12-03T06:26:06.282Z,102434.82
2022-12-03T06:28:35.061Z,102440.66
2022-12-03T06:31:04.274Z,102437.34
2022-12-03T06:33:33.380Z,102433.54
2022-12-03T06:36:02.021Z,102436.56
2022-12-03T06:38:30.900Z,102437.26
2022-12-03T06:40:59.617Z,102439.50
2022-12-03T06:43:28.293Z,102437.11
2022-12-03T06:45:57.166Z,102440.36
2022-12-03T06:48:26.073Z,102444.36
2022-12-03T06:50:54.736Z,102443.48
2022-12-03T06:53:23.555Z,102444.00
2022-12-03T06:55:52.602Z,102441.79
2022-12-03T06:58:21.636Z,102445.02
2022-12-03T07:00:50.422Z,102442.11
2022-12-03T07:03:19.174Z,102447.59
2022-12-03T07:05:47.857Z,102448.58
2022-12-03T07:08:16.682Z,102448.41
2022-12-03T07:10:45.437Z,102447.89
2022-12-03T07:13:14.188Z,102450.11
2022-12-03T07:15:43.056Z,102453.52
2022-12-03T07:18:12.213Z,102454.42
2022-12-03T07:20:41.676Z,102451.34
2022-12-03T07:23:10.358Z,102450.00
2022-12-03T07:25:39.152Z,102451.08
2022-12-03T07:29:48.512Z,102451.03
2022-12-03T07:32:17.323Z,102457.42
2022-12-03T07:34:46.111Z,102455.80
2022-12-03T07:37:18.606Z,102452.79
2022-12-03T07:39:50.474Z,102451.48
2022-12-03T07:42:19.178Z,102455.09
2022-12-03T07:44:47.983Z,102456.64
2022-12-03T07:47:16.625Z,102457.55
2022-12-03T07:49:45.309Z,102455.36
2022-12-03T07:52:13.937Z,102455.52
2022-12-03T07:54:43.295Z,102454.84
2022-12-03T07:57:11.987Z,102456.21
2022-12-03T07:59:40.732Z,102457.95
2022-12-03T08:02:11.484Z,102462.57
2022-12-03T08:04:40.242Z,102465.98
2022-12-03T08:07:08.879Z,102470.60
2022-12-03T08:09:42.634Z,102473.29
2022-12-03T08:12:40.383Z,102474.89
2022-12-03T08:15:25.144Z,102478.63
2022-12-03T08:18:02.643Z,102478.61
2022-12-03T08:20:43.088Z,102478.57
2022-12-03T08:23:24.271Z,102475.46
2022-12-03T08:25:53.662Z,102480.71
2022-12-03T08:28:27.363Z,102481.41
2022-12-03T08:31:32.856Z,102481.64
2022-12-03T08:34:37.073Z,102482.89
2022-12-03T08:37:19.935Z,102483.95
2022-12-03T08:39:55.401Z,102485.21
2022-12-03T08:42:42.447Z,102482.98
2022-12-03T08:45:29.594Z,102481.06
2022-12-03T08:48:29.295Z,102478.80
2022-12-03T08:51:02.271Z,102479.66
2022-12-03T08:54:13.768Z,102477.73
2022-12-03T08:56:42.539Z,102464.05
2022-12-03T08:59:31.856Z,102471.27
2022-12-03T09:02:00.683Z,102473.32
2022-12-03T09:04:46.849Z,102471.61
2022-12-03T09:07:15.486Z,102477.98
2022-12-03T09:09:44.129Z,102476.45
2022-12-03T09:12:12.819Z,102474.20
2022-12-03T09:14:43.447Z,102473.46
2022-12-03T09:17:12.568Z,102473.95
2022-12-03T09:19:46.282Z,102478.41
2022-12-03T09:22:26.043Z,102476.52
2022-12-03T09:24:54.948Z,102481.80
2022-12-03T09:27:23.959Z,102480.42
2022-12-03T09:29:52.610Z,102479.52
2022-12-03T09:32:21.363Z,102479.86
2022-12-03T09:34:50.128Z,102479.20
2022-12-03T09:37:18.867Z,102483.13
2022-12-03T09:39:47.677Z,102480.63
2022-12-03T09:42:17.395Z,102485.09
2022-12-03T09:44:46.391Z,102483.70
2022-12-03T09:47:15.078Z,102482.46
2022-12-03T09:49:44.313Z,102478.15
2022-12-03T09:52:25.637Z,102471.91
2022-12-03T09:54:55.555Z,102470.77
2022-12-03T09:57:24.989Z,102471.75
2022-12-03T09:59:59.318Z,102471.07
2022-12-03T10:02:31.204Z,102464.55
2022-12-03T10:05:00.179Z,102460.84
2022-12-03T10:07:29.352Z,102462.21
2022-12-03T10:09:58.315Z,102464.58
2022-12-03T10:12:27.434Z,102464.20
2022-12-03T10:14:56.739Z,102463.05
2022-12-03T10:17:27.317Z,102462.98
2022-12-03T10:19:56.285Z,102462.81
2022-12-03T10:22:25.132Z,102464.89
2022-12-03T10:25:22.687Z,102463.30
2022-12-03T10:28:01.737Z,102463.66
2022-12-03T10:30:30.779Z,102462.71
2022-12-03T10:33:02.976Z,102461.86
2022-12-03T10:35:44.003Z,102461.90
2022-12-03T10:38:18.704Z,102461.73
2022-12-03T10:41:30.275Z,102462.37
2022-12-03T10:44:31.163Z,102456.08
2022-12-03T10:47:11.987Z,102456.58
2022-12-03T10:49:42.394Z,102458.42
2022-12-03T10:52:25.892Z,102461.31
2022-12-03T10:54:55.295Z,102465.62
2022-12-03T10:57:25.271Z,102465.40
2022-12-03T10:59:54.045Z,102457.77
2022-12-03T11:02:25.049Z,102456.23
2022-12-03T11:04:55.867Z,102461.53
2022-12-03T11:07:26.575Z,102451.81
2022-12-03T11:09:55.732Z,102450.52
2022-12-03T11:12:29.503Z,102450.83
2022-12-03T11:15:05.440Z,102456.37
2022-12-03T11:17:43.004Z,102452.55
2022-12-03T11:20:22.647Z,102455.09
2022-12-03T11:22:54.444Z,102448.37
2022-12-03T11:25:26.179Z,102443.07
2022-12-03T11:28:13.292Z,102439.69
2022-12-03T11:30:51.219Z,102440.70
2022-12-03T11:33:33.273Z,102440.48
2022-12-03T11:36:04.859Z,102440.77
2022-12-03T11:38:52.980Z,102441.04
2022-12-03T11:41:27.305Z,102439.74
2022-12-03T11:43:56.611Z,102438.70
2022-12-03T11:46:30.016Z,102437.02
2022-12-03T11:49:00.954Z,102438.48
2022-12-03T11:51:31.063Z,102440.13
2022-12-03T11:54:00.964Z,102441.59
2022-12-03T11:56:30.791Z,102440.27
2022-12-03T11:59:12.030Z,102442.58
2022-12-03T12:01:43.009Z,102448.34
2022-12-03T12:04:28.405Z,102450.58
2022-12-03T12:06:57.190Z,102459.66
2022-12-03T12:09:55.834Z,102461.91
2022-12-03T12:12:37.165Z,102457.80
2022-12-03T12:15:40.159Z,102458.14
2022-12-03T12:18:39.949Z,102458.72
2022-12-03T12:21:51.228Z,102459.64
2022-12-03T12:24:43.407Z,102464.61
2022-12-03T12:27:13.597Z,102465.37
2022-12-03T12:29:48.643Z,102467.55
2022-12-03T12:33:26.382Z,102467.84
2022-12-03T12:36:09.528Z,102448.74
2022-12-03T12:38:38.211Z,102478.69
2022-12-03T12:41:09.526Z,102478.66
2022-12-03T12:43:41.400Z,102478.70
2022-12-03T12:46:46.657Z,102487.10
2022-12-03T12:49:20.764Z,102486.27
2022-12-03T12:51:50.763Z,102487.82
2022-12-03T12:54:19.647Z,102490.36
2022-12-03T12:56:50.879Z,102491.40
2022-12-03T12:59:22.400Z,102491.89
2022-12-03T13:01:51.395Z,102487.08
2022-12-03T13:04:25.855Z,102494.23
2022-12-03T13:06:55.279Z,102494.94
2022-12-03T13:09:26.319Z,102493.56
2022-12-03T13:12:01.561Z,102492.59
2022-12-03T13:14:38.170Z,102486.77
2022-12-03T13:17:24.805Z,102488.84
2022-12-03T13:20:07.895Z,102491.77
2022-12-03T13:22:38.824Z,102493.57
2022-12-03T13:25:59.404Z,102497.39
2022-12-03T13:28:30.511Z,102495.86
2022-12-03T13:31:32.278Z,102494.86
2022-12-03T13:34:02.495Z,102497.42
2022-12-03T13:36:44.471Z,102499.44
2022-12-03T13:39:24.485Z,102502.81
2022-12-03T13:42:16.254Z,102505.85
2022-12-03T13:44:49.339Z,102507.57
2022-12-03T13:47:24.144Z,102512.15
2022-12-03T13:49:58.615Z,102513.84
2022-12-03T13:52:27.774Z,102512.94
2022-12-03T13:54:57.429Z,102511.12
2022-12-03T13:57:26.523Z,102512.66
2022-12-03T13:59:55.656Z,102509.43
2022-12-03T14:02:25.227Z,102514.52
2022-12-03T14:05:00.021Z,102519.70
2022-12-03T14:07:29.802Z,102516.66
2022-12-03T14:10:01.381Z,102521.86
2022-12-03T14:12:33.960Z,102520.82
2022-12-03T14:15:05.595Z,102521.91
2022-12-03T14:17:34.290Z,102526.02
2022-12-03T14:20:06.048Z,102526.54
2022-12-03T14:22:38.185Z,102524.13
2022-12-03T14:25:07.972Z,102527.85
2022-12-03T14:27:36.815Z,102532.83
2022-12-03T14:30:06.687Z,102529.04
2022-12-03T14:32:35.328Z,102530.15
2022-12-03T14:35:09.662Z,102536.64
2022-12-03T14:37:38.898Z,102538.72
2022-12-03T14:40:09.292Z,102538.90
2022-12-03T14:42:37.958Z,102542.33
2022-12-03T14:45:07.578Z,102550.09
2022-12-03T14:47:36.384Z,102550.95
2022-12-03T14:50:06.245Z,102553.55
2022-12-03T14:52:34.952Z,102552.73
2022-12-03T14:55:04.046Z,102548.66
2022-12-03T14:57:32.689Z,102554.66
2022-12-03T15:00:01.375Z,102557.09
2022-12-03T15:02:30.623Z,102559.45
2022-12-03T15:04:59.403Z,102565.79
2022-12-03T15:07:28.099Z,102568.55
2022-12-03T15:09:57.042Z,102566.66
2022-12-03T15:12:26.340Z,102571.44
2022-12-03T15:14:55.279Z,102574.34
2022-12-03T15:17:31.279Z,102574.14
2022-12-03T15:20:00.548Z,102577.59
2022-12-03T15:22:29.256Z,102578.76
2022-12-03T15:24:57.969Z,102581.69
2022-12-03T15:27:26.723Z,102580.84
2022-12-03T15:29:55.804Z,102582.00
2022-12-03T15:32:24.893Z,102576.91
2022-12-03T15:34:53.609Z,102584.11
2022-12-03T15:37:22.278Z,102589.09
2022-12-03T15:39:50.896Z,102589.75
2022-12-03T15:42:19.575Z,102588.75
2022-12-03T15:44:48.180Z,102593.77
2022-12-03T15:47:16.997Z,102592.92
2022-12-03T15:49:45.660Z,102594.30
2022-12-03T15:52:14.307Z,102595.86
2022-12-03T15:54:42.964Z,102601.39
2022-12-03T15:57:18.453Z,102602.27
2022-12-03T15:59:47.373Z,102606.90
2022-12-03T16:02:16.648Z,102608.63
2022-12-03T16:04:48.025Z,102609.66
2022-12-03T16:07:17.592Z,102613.61
2022-12-03T16:09:47.482Z,102615.29
2022-12-03T16:12:16.146Z,102616.99
2022-12-03T16:14:44.849Z,102619.90
2022-12-03T16:17:13.734Z,102620.58
2022-12-03T16:19:42.638Z,102626.36
2022-12-03T16:22:11.338Z,102629.61
2022-12-03T16:24:40.052Z,102631.69
2022-12-03T16:27:08.854Z,102632.02
2022-12-03T16:29:37.456Z,102633.23
2022-12-03T16:32:06.213Z,102631.37
2022-12-03T16:34:34.915Z,102633.96
2022-12-03T16:37:05.406Z,102634.83
2022-12-03T16:39:36.631Z,102636.50
2022-12-03T16:42:11.776Z,102635.64
2022-12-03T16:45:34.910Z,102636.85
2022-12-03T16:48:03.771Z,102636.35
2022-12-03T16:50:32.459Z,102640.81
2022-12-03T16:53:01.080Z,102639.42
2022-12-03T16:55:29.758Z,102641.83
2022-12-03T16:57:58.453Z,102644.23
2022-12-03T17:00:27.579Z,102647.47
2022-12-03T17:02:56.369Z,102646.57
2022-12-03T17:05:25.120Z,102647.23
2022-12-03T17:07:53.965Z,102648.46
2022-12-03T17:10:22.797Z,102652.27
2022-12-03T17:15:41.472Z,102655.77
2022-12-03T17:18:10.776Z,102659.20
2022-12-03T17:20:39.459Z,102665.72
2022-12-03T17:23:09.025Z,102667.27
2022-12-03T17:25:37.734Z,102668.96
2022-12-03T17:28:06.636Z,102671.37
2022-12-03T17:30:35.594Z,102671.20
2022-12-03T17:33:04.331Z,102674.80
2022-12-03T17:35:33.197Z,102676.86
2022-12-03T17:38:03.100Z,102677.38
2022-12-03T17:40:32.210Z,102674.42
2022-12-03T17:43:01.134Z,102677.34
2022-12-03T17:45:29.704Z,102679.73
2022-12-03T17:47:58.466Z,102678.05
2022-12-03T17:50:27.267Z,102677.05
2022-12-03T17:52:55.943Z,102680.61
2022-12-03T17:55:35.895Z,102681.51
2022-12-03T17:58:06.817Z,102679.11
2022-12-03T18:00:35.607Z,102674.14
2022-12-03T18:03:05.305Z,102673.29
2022-12-03T18:05:34.090Z,102672.60
2022-12-03T18:08:03.020Z,102669.50
2022-12-03T18:10:31.754Z,102672.42
2022-12-03T18:13:02.225Z,102673.45
2022-12-03T18:15:32.421Z,102673.96
2022-12-03T18:18:01.071Z,102674.82
2022-12-03T18:20:29.706Z,102679.80
2022-12-03T18:22:59.743Z,102680.98
2022-12-03T18:25:29.461Z,102679.95
2022-12-03T18:27:58.244Z,102683.69
2022-12-03T18:30:26.982Z,102681.30
2022-12-03T18:32:55.779Z,102679.24
2022-12-03T18:35:24.718Z,102678.73
2022-12-03T18:37:53.731Z,102680.79
2022-12-03T18:40:24.816Z,102684.41
2022-12-03T18:42:56.498Z,102683.40
2022-12-03T18:45:25.420Z,102684.27
2022-12-03T18:47:55.212Z,102684.95
2022-12-03T18:50:24.246Z,102684.42
2022-12-03T18:52:52.877Z,102683.90
2022-12-03T18:55:22.167Z,102683.73
2022-12-03T18:57:50.894Z,102685.73
2022-12-03T19:00:20.515Z,102687.13
2022-12-03T19:03:04.914Z,102687.83
2022-12-03T19:05:35.374Z,102689.19
2022-12-03T19:08:12.795Z,102690.39
2022-12-03T19:10:43.672Z,102688.70
2022-12-03T19:13:12.529Z,102691.61
2022-12-03T19:15:41.506Z,102690.52
2022-12-03T19:18:10.133Z,102691.04
2022-12-03T19:20:42.335Z,102691.73
2022-12-03T19:23:10.924Z,102695.16
2022-12-03T19:25:39.826Z,102696.20
2022-12-03T19:28:09.447Z,102691.92
2022-12-03T19:30:38.120Z,102694.70
2022-12-03T19:33:06.906Z,102692.66
2022-12-03T19:35:40.208Z,102693.52
2022-12-03T19:38:08.789Z,102696.77
2022-12-03T19:40:37.780Z,102694.90
2022-12-03T19:43:06.647Z,102691.66
2022-12-03T19:45:37.322Z,102697.67
2022-12-03T19:48:06.376Z,102699.89
2022-12-03T19:50:35.082Z,102706.08
2022-12-03T19:53:03.908Z,102708.82
2022-12-03T19:55:35.735Z,102710.20
2022-12-03T19:58:04.446Z,102713.97
2022-12-03T20:00:35.876Z,102713.63
2022-12-03T20:03:04.707Z,102719.28
2022-12-03T20:05:40.918Z,102720.66
2022-12-03T20:08:09.745Z,102723.06
2022-12-03T20:10:38.779Z,102721.17
2022-12-03T20:13:07.623Z,102724.78
2022-12-03T20:15:37.826Z,102724.60
2022-12-03T20:18:06.513Z,102724.79
2022-12-03T20:20:35.521Z,102724.45
2022-12-03T20:23:05.008Z,102728.41
2022-12-03T20:25:37.748Z,102727.02
2022-12-03T20:28:06.487Z,102733.20
2022-12-03T20:30:35.276Z,102734.05
2022-12-03T20:33:04.266Z,102730.63
2022-12-03T20:35:34.082Z,102729.59
2022-12-03T20:38:02.769Z,102732.86
2022-12-03T20:40:31.507Z,102734.59
2022-12-03T20:43:00.174Z,102737.15
2022-12-03T20:45:28.918Z,102738.36
2022-12-03T20:47:57.714Z,102740.94
2022-12-03T20:50:26.488Z,102746.09
2022-12-03T20:53:22.669Z,102751.06
2022-12-03T20:55:43.927Z,102745.90
2022-12-03T20:58:12.629Z,102744.02
2022-12-03T21:00:41.297Z,102747.79
2022-12-03T21:03:10.080Z,102745.73
2022-12-03T21:05:39.337Z,102749.33
2022-12-03T21:08:08.178Z,102749.52
2022-12-03T21:10:45.283Z,102748.83
2022-12-03T21:13:19.015Z,102752.94
2022-12-03T21:15:48.424Z,102755.18
2022-12-03T21:18:18.577Z,102755.51
2022-12-03T21:20:48.184Z,102758.26
2022-12-03T21:23:16.921Z,102755.01
2022-12-03T21:25:45.725Z,102756.54
2022-12-03T21:28:14.429Z,102757.57
2022-12-03T21:30:43.174Z,102757.58
2022-12-03T21:33:12.105Z,102757.57
2022-12-03T21:35:40.854Z,102755.69
2022-12-03T21:38:09.673Z,102757.91
2022-12-03T21:40:38.465Z,102758.24
2022-12-03T21:43:07.166Z,102757.91
2022-12-03T21:45:35.877Z,102757.55
2022-12-03T21:48:04.712Z,102758.08
2022-12-03T21:50:33.961Z,102754.64
2022-12-03T21:53:02.802Z,102755.34
2022-12-03T21:55:31.654Z,102757.21
2022-12-03T21:58:00.369Z,102749.32
2022-12-03T22:00:29.188Z,102745.89
2022-12-03T22:02:58.105Z,102744.69
2022-12-03T22:05:26.957Z,102741.77
2022-12-03T22:07:56.085Z,102740.58
2022-12-03T22:10:24.852Z,102736.63
2022-12-03T22:12:53.836Z,102742.64
2022-12-03T22:15:22.827Z,102741.60
2022-12-03T22:17:51.721Z,102741.60
2022-12-03T22:20:20.409Z,102742.81
2022-12-03T22:22:49.321Z,102741.61
2022-12-03T22:25:18.396Z,102741.09
2022-12-03T22:27:47.288Z,102738.69
2022-12-03T22:30:16.380Z,102740.58
2022-12-03T22:32:45.072Z,102737.46
2022-12-03T22:35:13.963Z,102739.02
2022-12-03T22:37:42.794Z,102738.50
2022-12-03T22:40:12.243Z,102731.11
2022-12-03T22:42:43.988Z,102726.83
2022-12-03T22:45:15.672Z,102724.57
2022-12-03T22:47:44.485Z,102726.28
2022-12-03T22:50:13.455Z,102727.15
2022-12-03T22:52:42.539Z,102728.34
2022-12-03T22:55:11.539Z,102726.63
2022-12-03T22:57:40.255Z,102726.97
2022-12-03T23:00:10.800Z,102726.79
2022-12-03T23:02:39.741Z,102729.90
2022-12-03T23:05:09.558Z,102733.98
2022-12-03T23:07:38.595Z,102728.67
2022-12-03T23:10:08.676Z,102728.33
2022-12-03T23:12:37.547Z,102727.31
2022-12-03T23:15:07.870Z,102724.23
2022-12-03T23:17:37.121Z,102727.31
2022-12-03T23:20:07.289Z,102725.80
2022-12-03T23:22:36.232Z,102727.34
2022-12-03T23:25:07.663Z,102725.61
2022-12-03T23:27:36.776Z,102684.60
2022-12-03T23:30:08.421Z,102721.15
2022-12-03T23:32:38.630Z,102717.89
2022-12-03T23:35:08.969Z,102718.91
2022-12-03T23:37:38.177Z,102716.66
2022-12-03T23:40:08.276Z,102718.05
2022-12-03T23:42:37.094Z,102716.31
2022-12-03T23:45:07.098Z,102719.59
2022-12-03T23:47:35.736Z,102721.80
2022-12-03T23:50:05.813Z,102721.45
2022-12-03T23:52:36.955Z,102720.91
2022-12-03T23:55:06.656Z,102723.98
2022-12-03T23:57:35.744Z,102730.86
